Arapora, Brazil
Current Conditions -  °F | °C
As of 4:00 PM on Monday 24 Nov 2014 (Local Time) from SBUL Reporting Station
Rain Showers Rain Showers  
Wind Chill: 81°   Ceiling: Unl
Heat Index: 82°   Visibility: 6mi
Dew Point: 64°   Wind: 7mph
Humidity: 58%   Direction: 340°NNW
Pressure: NA   Gusts: NA
Location:  18.44°S, 49.18°W
Report Text: SBUL 241800Z 34006KT 300V020 9999 VCSH SCT030 FEW035TCU 27/18 Q1015
Loading
Personal Weather Stations






























Interactive Weather Map New forecast layout! Learn more

10-Day Weather Forecast

Advertisements
Track Severe Weather on mobile